createdAt,value
2018-11-23T00:02:02.611Z,136.67
2018-11-23T00:04:32.280Z,124.67
2018-11-23T00:07:01.845Z,140.83
2018-11-23T00:09:31.423Z,141.90
2018-11-23T00:12:01.133Z,133.87
2018-11-23T00:14:31.051Z,135.33
2018-11-23T00:17:00.607Z,132.57
2018-11-23T00:19:30.302Z,135.03
2018-11-23T00:21:59.871Z,142.50
2018-11-23T00:24:29.440Z,136.13
2018-11-23T00:26:59.073Z,142.23
2018-11-23T00:29:28.680Z,138.90
2018-11-23T00:31:58.250Z,132.10
2018-11-23T00:34:27.842Z,139.67
2018-11-23T00:36:57.393Z,129.87
2018-11-23T00:39:27.589Z,138.30
2018-11-23T00:41:57.136Z,131.27
2018-11-23T00:44:26.731Z,124.40
2018-11-23T00:46:56.441Z,131.93
2018-11-23T00:49:26.048Z,131.80
2018-11-23T00:51:55.618Z,137.80
2018-11-23T00:54:25.301Z,130.17
2018-11-23T00:56:54.846Z,133.77
2018-11-23T00:59:24.397Z,131.10
2018-11-23T01:01:58.021Z,121.33
2018-11-23T01:04:27.603Z,121.20
2018-11-23T01:06:57.275Z,120.83
2018-11-23T01:09:26.803Z,125.53
2018-11-23T01:11:56.492Z,118.40
2018-11-23T01:14:26.495Z,128.07
2018-11-23T01:16:56.051Z,119.80
2018-11-23T01:19:25.632Z,116.63
2018-11-23T01:21:55.313Z,117.97
2018-11-23T01:24:24.941Z,119.47
2018-11-23T01:26:54.501Z,116.47
2018-11-23T01:29:24.146Z,118.33
2018-11-23T01:31:53.847Z,115.33
2018-11-23T01:34:23.392Z,117.70
2018-11-23T01:36:52.976Z,130.83
2018-11-23T01:39:22.582Z,127.77
2018-11-23T01:41:52.136Z,118.43
2018-11-23T01:44:21.762Z,115.57
2018-11-23T01:46:51.578Z,116.70
2018-11-23T01:49:21.282Z,120.50
2018-11-23T01:51:51.002Z,114.67
2018-11-23T01:54:21.201Z,118.53
2018-11-23T01:56:50.929Z,104.33
2018-11-23T01:59:20.628Z,115.90
2018-11-23T02:01:50.348Z,118.43
2018-11-23T02:04:19.916Z,116.17
2018-11-23T02:06:49.467Z,122.20
2018-11-23T02:09:19.196Z,123.90
2018-11-23T02:11:48.757Z,117.60
2018-11-23T02:14:18.350Z,120.37
2018-11-23T02:16:47.977Z,127.87
2018-11-23T02:19:17.570Z,123.23
2018-11-23T02:21:47.102Z,130.07
2018-11-23T02:24:16.680Z,120.07
2018-11-23T02:26:46.401Z,130.20
2018-11-23T02:29:15.942Z,124.73
2018-11-23T02:31:45.455Z,125.83
2018-11-23T02:34:15.106Z,126.57
2018-11-23T02:36:44.750Z,128.90
2018-11-23T02:39:18.318Z,134.37
2018-11-23T02:41:47.898Z,133.17
2018-11-23T02:44:17.423Z,132.60
2018-11-23T02:46:47.050Z,128.20
2018-11-23T02:49:16.650Z,126.83
2018-11-23T02:51:46.243Z,136.07
2018-11-23T02:54:15.947Z,135.27
2018-11-23T02:56:46.846Z,133.27
2018-11-23T02:59:16.530Z,138.80
2018-11-23T03:01:46.122Z,146.13
2018-11-23T03:04:15.683Z,127.80
2018-11-23T03:06:51.662Z,145.87
2018-11-23T03:09:21.269Z,141.03
2018-11-23T03:11:50.897Z,138.30
2018-11-23T03:14:20.463Z,152.47
2018-11-23T03:16:50.010Z,144.60
2018-11-23T03:19:19.680Z,143.20
2018-11-23T03:21:49.233Z,145.20
2018-11-23T03:24:18.794Z,154.80
2018-11-23T03:26:48.508Z,147.70
2018-11-23T03:29:18.051Z,157.30
2018-11-23T03:31:47.610Z,161.50
2018-11-23T03:34:17.214Z,160.00
2018-11-23T03:36:46.928Z,138.10
2018-11-23T03:39:16.537Z,154.23
2018-11-23T03:41:46.248Z,159.27
2018-11-23T03:44:15.951Z,167.60
2018-11-23T03:46:45.551Z,165.87
2018-11-23T03:49:15.154Z,169.10
2018-11-23T03:51:44.864Z,167.80
2018-11-23T03:54:14.437Z,160.87
2018-11-23T03:56:44.044Z,161.50
2018-11-23T03:59:13.574Z,169.17
2018-11-23T04:01:43.206Z,172.33
2018-11-23T04:04:13.310Z,174.47
2018-11-23T04:06:43.113Z,190.53
2018-11-23T04:09:12.710Z,166.97
2018-11-23T04:11:42.322Z,177.67
2018-11-23T04:14:11.931Z,177.93
2018-11-23T04:16:41.548Z,171.27
2018-11-23T04:19:11.161Z,168.80
2018-11-23T04:21:40.704Z,168.10
2018-11-23T04:24:10.362Z,165.93
2018-11-23T04:26:40.013Z,178.63
2018-11-23T04:29:09.562Z,171.00
2018-11-23T04:31:39.084Z,181.17
2018-11-23T04:34:08.751Z,169.43
2018-11-23T04:36:38.327Z,187.07
2018-11-23T04:39:09.407Z,173.23
2018-11-23T04:41:46.023Z,189.90
2018-11-23T04:44:08.874Z,189.43
2018-11-23T04:46:38.523Z,191.27
2018-11-23T04:49:08.352Z,204.13
2018-11-23T04:51:37.921Z,186.70
2018-11-23T04:54:07.679Z,185.00
2018-11-23T04:56:37.226Z,174.60
2018-11-23T04:59:07.383Z,189.50
2018-11-23T05:01:37.320Z,190.17
2018-11-23T05:04:06.902Z,191.10
2018-11-23T05:06:36.498Z,186.07
2018-11-23T05:09:09.227Z,195.90
2018-11-23T05:11:39.311Z,188.03
2018-11-23T05:14:09.020Z,198.87
2018-11-23T05:16:38.828Z,172.13
2018-11-23T05:19:08.461Z,193.13
2018-11-23T05:21:38.033Z,176.80
2018-11-23T05:24:07.687Z,177.67
2018-11-23T05:26:37.301Z,196.13
2018-11-23T05:29:07.354Z,193.83
2018-11-23T05:31:36.930Z,195.83
2018-11-23T05:34:06.596Z,186.63
2018-11-23T05:36:36.263Z,184.80
2018-11-23T05:39:09.002Z,186.07
2018-11-23T05:41:38.783Z,190.47
2018-11-23T05:44:08.385Z,199.30
2018-11-23T05:46:38.062Z,186.10
2018-11-23T05:49:07.710Z,190.30
2018-11-23T05:51:37.421Z,190.27
2018-11-23T05:54:07.412Z,198.80
2018-11-23T05:56:37.015Z,191.93
2018-11-23T05:59:07.142Z,189.60
2018-11-23T06:01:36.798Z,191.73
2018-11-23T06:04:06.504Z,176.57
2018-11-23T06:06:42.204Z,200.63
2018-11-23T06:09:07.825Z,184.30
2018-11-23T06:11:37.729Z,185.57
2018-11-23T06:14:07.451Z,188.10
2018-11-23T06:16:37.158Z,183.23
2018-11-23T06:19:06.903Z,195.40
2018-11-23T06:21:36.513Z,197.73
2018-11-23T06:24:06.561Z,195.87
2018-11-23T06:26:36.797Z,174.47
2018-11-23T06:29:06.599Z,191.73
2018-11-23T06:31:36.312Z,195.60
2018-11-23T06:34:05.912Z,185.87
2018-11-23T06:36:35.526Z,171.07
2018-11-23T06:39:06.984Z,185.20
2018-11-23T06:41:37.000Z,183.00
2018-11-23T06:44:07.135Z,170.27
2018-11-23T06:46:36.816Z,184.40
2018-11-23T06:49:06.545Z,179.40
2018-11-23T06:51:36.335Z,185.27
2018-11-23T06:54:06.003Z,168.80
2018-11-23T06:56:35.640Z,173.30
2018-11-23T06:59:05.633Z,183.83
2018-11-23T07:01:35.196Z,196.27
2018-11-23T07:04:04.754Z,181.03
2018-11-23T07:06:34.565Z,188.57
2018-11-23T07:09:05.270Z,182.30
2018-11-23T07:11:34.965Z,177.87
2018-11-23T07:14:05.042Z,190.90
2018-11-23T07:16:34.708Z,184.87
2018-11-23T07:19:04.366Z,195.53
2018-11-23T07:21:33.982Z,184.87
2018-11-23T07:24:03.665Z,172.07
2018-11-23T07:26:33.222Z,195.83
2018-11-23T07:29:04.936Z,188.77
2018-11-23T07:31:34.650Z,177.47
2018-11-23T07:34:04.235Z,176.60
2018-11-23T07:36:33.813Z,190.67
2018-11-23T07:39:19.117Z,198.47
2018-11-23T07:42:02.038Z,198.07
2018-11-23T07:44:31.747Z,204.73
2018-11-23T07:47:01.417Z,209.33
2018-11-23T07:49:31.080Z,197.23
2018-11-23T07:52:00.777Z,191.20
2018-11-23T07:54:30.479Z,193.20
2018-11-23T07:57:00.291Z,204.70
2018-11-23T07:59:29.989Z,191.27
2018-11-23T08:01:59.697Z,215.80
2018-11-23T08:04:29.214Z,208.90
2018-11-23T08:06:59.020Z,209.33
2018-11-23T08:09:28.619Z,199.53
2018-11-23T08:11:58.438Z,211.83
2018-11-23T08:14:28.122Z,202.33
2018-11-23T08:16:57.683Z,218.73
2018-11-23T08:19:27.424Z,201.13
2018-11-23T08:21:57.061Z,228.75
2018-11-23T08:24:27.220Z,227.70
2018-11-23T08:26:56.470Z,209.07
2018-11-23T08:29:26.081Z,209.60
2018-11-23T08:31:55.697Z,219.00
2018-11-23T08:34:25.239Z,200.87
2018-11-23T08:36:55.201Z,203.57
2018-11-23T08:39:25.438Z,211.33
2018-11-23T08:41:55.188Z,215.83
2018-11-23T08:44:24.850Z,216.10
2018-11-23T08:46:54.538Z,204.03
2018-11-23T08:49:24.227Z,218.97
2018-11-23T08:51:53.860Z,200.83
2018-11-23T08:54:23.475Z,193.77
2018-11-23T08:56:53.177Z,204.93
2018-11-23T08:59:22.885Z,211.97
2018-11-23T09:01:52.487Z,197.00
2018-11-23T09:04:22.096Z,207.93
2018-11-23T09:06:51.678Z,208.57
2018-11-23T09:09:21.221Z,207.07
2018-11-23T09:11:50.901Z,201.00
2018-11-23T09:14:20.526Z,222.93
2018-11-23T09:16:50.064Z,203.17
2018-11-23T09:19:19.731Z,208.67
2018-11-23T09:21:49.342Z,191.30
2018-11-23T09:24:18.894Z,208.50
2018-11-23T09:26:48.459Z,210.63
2018-11-23T09:29:18.140Z,220.63
2018-11-23T09:31:47.662Z,234.73
2018-11-23T09:34:17.205Z,222.23
2018-11-23T09:36:46.822Z,221.67
2018-11-23T09:39:22.987Z,222.10
2018-11-23T09:41:52.837Z,222.30
2018-11-23T09:44:22.624Z,224.03
2018-11-23T09:46:52.354Z,227.40
2018-11-23T09:49:22.264Z,231.57
2018-11-23T09:51:51.703Z,211.30
2018-11-23T09:54:21.316Z,208.10
2018-11-23T09:56:51.132Z,222.00
2018-11-23T09:59:20.812Z,220.40
2018-11-23T10:01:50.467Z,216.97
2018-11-23T10:04:20.136Z,210.37
2018-11-23T10:06:49.711Z,207.70
2018-11-23T10:09:19.270Z,218.53
2018-11-23T10:11:49.027Z,219.33
2018-11-23T10:14:18.632Z,218.00
2018-11-23T10:16:48.206Z,212.00
2018-11-23T10:19:31.368Z,230.93
2018-11-23T10:22:00.966Z,207.63
2018-11-23T10:24:30.535Z,214.80
2018-11-23T10:27:00.139Z,223.97
2018-11-23T10:29:29.790Z,210.63
2018-11-23T10:31:59.372Z,232.57
2018-11-23T10:34:29.018Z,223.63
2018-11-23T10:36:58.553Z,200.60
2018-11-23T10:39:28.317Z,214.90
2018-11-23T10:41:57.903Z,211.17
2018-11-23T10:44:27.519Z,200.33
2018-11-23T10:46:57.041Z,210.43
2018-11-23T10:49:26.648Z,206.70
2018-11-23T10:51:56.247Z,222.47
2018-11-23T10:54:25.840Z,216.13
2018-11-23T10:56:55.456Z,225.17
2018-11-23T10:59:25.157Z,209.87
2018-11-23T11:01:58.829Z,225.33
2018-11-23T11:04:32.453Z,204.10
2018-11-23T11:07:06.139Z,210.07
2018-11-23T11:09:36.158Z,212.27
2018-11-23T11:12:05.827Z,222.03
2018-11-23T11:14:35.576Z,200.07
2018-11-23T11:17:05.180Z,202.90
2018-11-23T11:19:34.749Z,191.23
2018-11-23T11:22:04.509Z,188.20
2018-11-23T11:24:34.120Z,194.87
2018-11-23T11:27:03.729Z,194.20
2018-11-23T11:29:33.426Z,188.67
2018-11-23T11:32:03.072Z,208.60
2018-11-23T11:34:32.651Z,186.87
2018-11-23T11:37:02.535Z,190.70
2018-11-23T11:39:32.101Z,181.87
2018-11-23T11:42:01.749Z,191.03
2018-11-23T11:44:31.351Z,191.73
2018-11-23T11:47:00.952Z,192.17
2018-11-23T11:49:30.506Z,188.83
2018-11-23T11:52:00.080Z,162.37
2018-11-23T11:54:29.804Z,162.87
2018-11-23T11:56:59.463Z,164.33
2018-11-23T11:59:32.079Z,151.27
2018-11-23T12:02:01.692Z,150.23
2018-11-23T12:04:31.287Z,157.17
2018-11-23T12:07:00.899Z,160.73
2018-11-23T12:09:30.520Z,151.80
2018-11-23T12:12:00.108Z,158.23
2018-11-23T12:14:29.817Z,145.57
2018-11-23T12:16:59.413Z,149.27
2018-11-23T12:19:29.136Z,147.07
2018-11-23T12:21:58.699Z,143.60
2018-11-23T12:24:28.293Z,143.70
2018-11-23T12:26:58.011Z,160.60
2018-11-23T12:29:27.616Z,147.30
2018-11-23T12:31:57.741Z,140.10
2018-11-23T12:34:27.411Z,153.03
2018-11-23T12:36:57.027Z,158.33
2018-11-23T12:39:26.689Z,171.03
2018-11-23T12:41:56.290Z,173.10
2018-11-23T12:44:25.880Z,179.87
2018-11-23T12:46:55.506Z,180.90
2018-11-23T12:49:25.270Z,168.07
2018-11-23T12:51:55.436Z,175.50
2018-11-23T12:54:25.253Z,180.40
2018-11-23T12:56:55.193Z,182.23
2018-11-23T12:59:24.871Z,181.93
2018-11-23T13:01:54.694Z,182.20
2018-11-23T13:04:24.391Z,173.53
2018-11-23T13:06:54.924Z,189.00
2018-11-23T13:09:24.917Z,196.80
2018-11-23T13:11:54.720Z,210.40
2018-11-23T13:14:24.820Z,209.50
2018-11-23T13:16:55.702Z,207.17
2018-11-23T13:19:25.618Z,220.30
2018-11-23T13:21:55.328Z,205.73
2018-11-23T13:24:25.232Z,208.93
2018-11-23T13:26:55.056Z,207.37
2018-11-23T13:29:24.757Z,218.17
2018-11-23T13:31:54.588Z,210.27
2018-11-23T13:34:24.257Z,208.60
2018-11-23T13:36:53.899Z,222.07
2018-11-23T13:39:23.688Z,204.33
2018-11-23T13:41:53.396Z,207.93
2018-11-23T13:44:23.210Z,217.03
2018-11-23T13:46:53.125Z,221.97
2018-11-23T13:49:23.036Z,210.10
2018-11-23T13:51:52.766Z,225.97
2018-11-23T13:54:22.531Z,233.30
2018-11-23T13:56:52.506Z,246.23
2018-11-23T13:59:22.163Z,223.73
2018-11-23T14:01:51.750Z,251.70
2018-11-23T14:04:21.407Z,232.27
2018-11-23T14:06:50.941Z,256.30
2018-11-23T14:09:20.591Z,252.37
2018-11-23T14:11:50.237Z,253.03
2018-11-23T14:14:19.901Z,248.73
2018-11-23T14:16:49.470Z,255.47
2018-11-23T14:19:19.117Z,264.40
2018-11-23T14:21:48.759Z,249.97
2018-11-23T14:24:18.340Z,247.30
2018-11-23T14:26:47.953Z,242.93
2018-11-23T14:29:17.550Z,264.10
2018-11-23T14:31:47.254Z,270.80
2018-11-23T14:34:16.955Z,274.20
2018-11-23T14:36:46.556Z,268.07
2018-11-23T14:39:16.287Z,276.80
2018-11-23T14:41:45.874Z,288.43
2018-11-23T14:44:15.471Z,265.87
2018-11-23T14:46:45.118Z,266.70
2018-11-23T14:49:14.727Z,270.53
2018-11-23T14:51:44.402Z,269.63
2018-11-23T14:54:14.221Z,278.37
2018-11-23T14:56:43.848Z,274.10
2018-11-23T14:59:13.435Z,259.90
2018-11-23T15:01:43.085Z,265.20
2018-11-23T15:04:13.729Z,258.07
2018-11-23T15:06:43.357Z,257.17
2018-11-23T15:09:13.177Z,250.83
2018-11-23T15:11:42.746Z,252.70
2018-11-23T15:14:12.319Z,255.03
2018-11-23T15:16:41.968Z,245.50
2018-11-23T15:19:11.645Z,256.73
2018-11-23T15:21:41.332Z,242.07
2018-11-23T15:24:11.124Z,231.40
2018-11-23T15:26:40.758Z,250.77
2018-11-23T15:29:10.428Z,240.23
2018-11-23T15:31:40.961Z,266.17
2018-11-23T15:34:10.579Z,243.40
2018-11-23T15:36:40.221Z,238.47
2018-11-23T15:39:12.436Z,238.07
2018-11-23T15:41:42.088Z,233.63
2018-11-23T15:44:11.707Z,232.73
2018-11-23T15:46:41.335Z,240.93
2018-11-23T15:49:11.069Z,242.93
2018-11-23T15:51:40.782Z,264.43
2018-11-23T15:54:10.392Z,236.37
2018-11-23T15:56:40.092Z,238.77
2018-11-23T15:59:09.702Z,226.83
2018-11-23T16:01:39.270Z,243.40
2018-11-23T16:04:09.170Z,232.67
2018-11-23T16:06:39.015Z,237.83
2018-11-23T16:09:13.259Z,234.27
2018-11-23T16:11:42.961Z,239.97
2018-11-23T16:14:12.596Z,237.83
2018-11-23T16:16:42.267Z,224.50
2018-11-23T16:19:11.974Z,221.57
2018-11-23T16:21:41.581Z,225.93
2018-11-23T16:24:11.697Z,227.23
2018-11-23T16:26:41.375Z,214.37
2018-11-23T16:29:11.112Z,228.87
2018-11-23T16:31:40.719Z,230.50
2018-11-23T16:34:10.436Z,224.10
2018-11-23T16:36:40.176Z,234.67
2018-11-23T16:39:12.409Z,228.07
2018-11-23T16:41:42.211Z,221.93
2018-11-23T16:44:14.988Z,220.93
2018-11-23T16:46:44.671Z,211.53
2018-11-23T16:49:14.412Z,216.87
2018-11-23T16:51:44.122Z,220.10
2018-11-23T16:54:14.951Z,208.13
2018-11-23T16:56:47.733Z,204.50
2018-11-23T16:59:17.436Z,212.47
2018-11-23T17:01:47.151Z,196.47
2018-11-23T17:04:16.843Z,196.07
2018-11-23T17:06:46.560Z,196.83
2018-11-23T17:09:19.267Z,200.20
2018-11-23T17:11:48.926Z,199.97
2018-11-23T17:14:18.663Z,212.50
2018-11-23T17:16:48.310Z,212.33
2018-11-23T17:19:17.971Z,201.27
2018-11-23T17:21:47.683Z,213.77
2018-11-23T17:24:17.494Z,208.17
2018-11-23T17:26:47.202Z,211.97
2018-11-23T17:29:23.031Z,210.50
2018-11-23T17:31:46.482Z,215.80
2018-11-23T17:34:22.451Z,212.47
2018-11-23T17:36:52.378Z,204.07
2018-11-23T17:39:22.046Z,224.95
2018-11-23T17:41:51.797Z,197.33
2018-11-23T17:44:21.512Z,188.13
2018-11-23T17:46:51.151Z,208.53
2018-11-23T17:49:21.123Z,216.03
2018-11-23T17:51:50.839Z,189.57
2018-11-23T17:54:20.444Z,200.73
2018-11-23T17:56:50.067Z,209.27
2018-11-23T17:59:20.061Z,197.07
2018-11-23T18:01:49.989Z,200.40
2018-11-23T18:04:19.878Z,203.30
2018-11-23T18:06:49.807Z,195.27
2018-11-23T18:09:19.496Z,192.80
2018-11-23T18:11:49.121Z,203.93
2018-11-23T18:14:18.817Z,213.77
2018-11-23T18:16:48.455Z,193.40
2018-11-23T18:19:18.343Z,196.67
2018-11-23T18:21:48.361Z,203.27
2018-11-23T18:24:18.026Z,212.83
2018-11-23T18:26:47.963Z,204.53
2018-11-23T18:29:17.604Z,202.67
2018-11-23T18:31:47.240Z,209.33
2018-11-23T18:34:16.902Z,210.00
2018-11-23T18:36:47.748Z,201.73
2018-11-23T18:39:17.941Z,207.03
2018-11-23T18:41:48.506Z,203.63
2018-11-23T18:44:18.353Z,197.80
2018-11-23T18:46:48.069Z,180.90
2018-11-23T18:49:17.718Z,191.13
2018-11-23T18:51:47.416Z,185.23
2018-11-23T18:54:17.069Z,197.13
2018-11-23T18:56:46.722Z,194.03
2018-11-23T18:59:16.406Z,190.07
2018-11-23T19:01:46.219Z,193.13
2018-11-23T19:04:16.821Z,188.97
2018-11-23T19:06:46.578Z,196.93
2018-11-23T19:09:16.198Z,188.03
2018-11-23T19:11:46.377Z,188.33
2018-11-23T19:14:16.456Z,186.67
2018-11-23T19:16:46.532Z,191.47
2018-11-23T19:19:16.146Z,199.27
2018-11-23T19:21:45.955Z,192.77
2018-11-23T19:24:16.316Z,169.60
2018-11-23T19:26:46.504Z,169.60
2018-11-23T19:29:16.515Z,166.67
2018-11-23T19:31:46.176Z,165.10
2018-11-23T19:34:15.955Z,173.97
2018-11-23T19:36:45.663Z,183.93
2018-11-23T19:39:15.307Z,166.03
2018-11-23T19:41:45.672Z,156.33
2018-11-23T19:44:15.369Z,154.70
2018-11-23T19:46:45.845Z,139.33
2018-11-23T19:49:16.357Z,124.50
2018-11-23T19:51:46.068Z,127.80
2018-11-23T19:54:16.573Z,133.57
2018-11-23T19:56:47.922Z,126.30
2018-11-23T19:59:17.627Z,93.70
2018-11-23T20:01:47.279Z,96.40
2018-11-23T20:04:17.043Z,89.43
2018-11-23T20:06:46.748Z,75.73
2018-11-23T20:09:16.461Z,76.43
2018-11-23T20:11:46.153Z,72.37
2018-11-23T20:14:15.848Z,75.80
2018-11-23T20:16:45.497Z,70.73
2018-11-23T20:19:15.169Z,73.77
2018-11-23T20:21:44.828Z,77.17
2018-11-23T20:24:14.586Z,71.70
2018-11-23T20:26:44.185Z,67.73
2018-11-23T20:29:14.023Z,76.97
2018-11-23T20:31:46.742Z,61.40
2018-11-23T20:34:17.575Z,61.93
2018-11-23T20:36:47.698Z,68.40
2018-11-23T20:39:18.162Z,60.87
2018-11-23T20:41:47.791Z,66.23
2018-11-23T20:44:17.492Z,59.10
2018-11-23T20:46:48.213Z,54.37
2018-11-23T20:49:21.006Z,62.07
2018-11-23T20:51:50.749Z,57.93
2018-11-23T20:54:23.486Z,51.00
2018-11-23T20:56:53.136Z,48.47
2018-11-23T20:59:22.912Z,48.73
2018-11-23T21:01:52.566Z,47.27
2018-11-23T21:04:22.222Z,47.30
2018-11-23T21:06:51.926Z,49.07
2018-11-23T21:09:21.642Z,43.47
2018-11-23T21:11:51.227Z,45.80
2018-11-23T21:14:20.949Z,47.20
2018-11-23T21:16:50.593Z,44.50
2018-11-23T21:19:20.365Z,45.13
2018-11-23T21:21:50.182Z,42.17
2018-11-23T21:24:19.995Z,54.23
2018-11-23T21:26:49.655Z,60.53
2018-11-23T21:29:19.393Z,66.57
2018-11-23T21:31:48.976Z,70.10
2018-11-23T21:34:18.758Z,66.83
2018-11-23T21:36:48.436Z,70.03
2018-11-23T21:39:18.231Z,69.17
2018-11-23T21:41:48.923Z,81.13
2018-11-23T21:44:18.661Z,85.37
2018-11-23T21:46:48.276Z,81.37
2018-11-23T21:49:18.095Z,90.97
2018-11-23T21:51:47.797Z,97.13
2018-11-23T21:54:17.467Z,96.20
2018-11-23T21:56:47.222Z,92.20
2018-11-23T21:59:16.933Z,90.30
2018-11-23T22:01:46.844Z,95.60
2018-11-23T22:04:16.546Z,95.77
2018-11-23T22:06:46.237Z,84.97
2018-11-23T22:09:15.886Z,78.07
2018-11-23T22:11:52.229Z,95.60
2018-11-23T22:14:15.597Z,81.10
2018-11-23T22:16:45.351Z,78.63
2018-11-23T22:19:15.116Z,81.20
2018-11-23T22:21:44.774Z,92.70
2018-11-23T22:24:14.387Z,88.77
2018-11-23T22:26:44.027Z,84.97
2018-11-23T22:29:13.717Z,77.00
2018-11-23T22:31:43.536Z,74.33
2018-11-23T22:34:13.275Z,70.37
2018-11-23T22:36:43.224Z,67.03
2018-11-23T22:39:12.868Z,62.97
2018-11-23T22:41:42.836Z,56.53
2018-11-23T22:44:12.496Z,66.90
2018-11-23T22:46:42.304Z,60.07
2018-11-23T22:49:12.006Z,63.07
2018-11-23T22:51:42.232Z,59.97
2018-11-23T22:54:11.942Z,68.97
2018-11-23T22:56:41.843Z,71.53
2018-11-23T22:59:11.746Z,75.87
2018-11-23T23:01:41.482Z,84.70
2018-11-23T23:04:11.238Z,89.30
2018-11-23T23:06:41.035Z,89.13
2018-11-23T23:09:11.156Z,91.17
2018-11-23T23:11:41.023Z,106.17
2018-11-23T23:14:10.721Z,94.47
2018-11-23T23:16:40.329Z,100.47
2018-11-23T23:19:10.018Z,108.53
2018-11-23T23:21:39.659Z,104.23
2018-11-23T23:24:11.774Z,95.77
2018-11-23T23:26:38.945Z,94.57
2018-11-23T23:29:08.565Z,80.77
2018-11-23T23:31:38.171Z,92.60
2018-11-23T23:34:07.994Z,82.90
2018-11-23T23:36:37.591Z,78.23
2018-11-23T23:39:09.106Z,84.17
2018-11-23T23:41:38.735Z,83.57
2018-11-23T23:44:08.386Z,91.17
2018-11-23T23:46:38.007Z,78.13
2018-11-23T23:49:07.743Z,79.33
2018-11-23T23:51:37.351Z,73.63
2018-11-23T23:54:07.503Z,80.43
2018-11-23T23:56:37.116Z,84.97
2018-11-23T23:59:07.204Z,80.70
